sensor_id;sensor_type;location;lat;lon;timestamp;temperature;humidity
15262;DHT22;7733;51.554;13.590;2023-04-24T00:00:14;13.60;99.90
15262;DHT22;7733;51.554;13.590;2023-04-24T00:02:44;13.50;99.90
15262;DHT22;7733;51.554;13.590;2023-04-24T00:05:13;13.50;99.90
15262;DHT22;7733;51.554;13.590;2023-04-24T00:07:40;13.50;99.90
15262;DHT22;7733;51.554;13.590;2023-04-24T00:10:07;13.50;99.90
15262;DHT22;7733;51.554;13.590;2023-04-24T00:12:33;13.50;99.90
15262;DHT22;7733;51.554;13.590;2023-04-24T00:15:00;13.50;99.90
15262;DHT22;7733;51.554;13.590;2023-04-24T00:17:26;13.50;99.90
15262;DHT22;7733;51.554;13.590;2023-04-24T00:19:52;13.40;99.90
15262;DHT22;7733;51.554;13.590;2023-04-24T00:22:24;13.40;99.90
15262;DHT22;7733;51.554;13.590;2023-04-24T00:24:50;13.00;99.90
15262;DHT22;7733;51.554;13.590;2023-04-24T00:27:16;12.80;99.90
15262;DHT22;7733;51.554;13.590;2023-04-24T00:29:42;12.70;99.90
15262;DHT22;7733;51.554;13.590;2023-04-24T00:32:08;12.80;99.90
15262;DHT22;7733;51.554;13.590;2023-04-24T00:34:33;12.80;99.90
15262;DHT22;7733;51.554;13.590;2023-04-24T00:36:59;13.00;99.90
15262;DHT22;7733;51.554;13.590;2023-04-24T00:39:25;13.10;99.90
15262;DHT22;7733;51.554;13.590;2023-04-24T00:41:51;13.10;99.90
15262;DHT22;7733;51.554;13.590;2023-04-24T00:44:18;13.00;99.90
15262;DHT22;7733;51.554;13.590;2023-04-24T00:46:43;13.10;99.90
15262;DHT22;7733;51.554;13.590;2023-04-24T00:49:11;13.00;99.90
15262;DHT22;7733;51.554;13.590;2023-04-24T00:51:37;13.00;99.90
15262;DHT22;7733;51.554;13.590;2023-04-24T00:54:03;13.00;99.90
15262;DHT22;7733;51.554;13.590;2023-04-24T00:56:29;13.00;99.90
15262;DHT22;7733;51.554;13.590;2023-04-24T00:58:55;13.10;99.90
15262;DHT22;7733;51.554;13.590;2023-04-24T01:01:21;13.20;99.90
15262;DHT22;7733;51.554;13.590;2023-04-24T01:03:50;13.20;99.90
15262;DHT22;7733;51.554;13.590;2023-04-24T01:06:18;13.20;99.90
15262;DHT22;7733;51.554;13.590;2023-04-24T01:08:46;13.10;99.90
15262;DHT22;7733;51.554;13.590;2023-04-24T01:11:13;13.10;99.90
15262;DHT22;7733;51.554;13.590;2023-04-24T01:13:40;13.20;99.90
15262;DHT22;7733;51.554;13.590;2023-04-24T01:16:06;13.20;99.90
15262;DHT22;7733;51.554;13.590;2023-04-24T01:18:32;13.00;99.90
15262;DHT22;7733;51.554;13.590;2023-04-24T01:20:59;12.90;99.90
15262;DHT22;7733;51.554;13.590;2023-04-24T01:23:28;12.80;99.90
15262;DHT22;7733;51.554;13.590;2023-04-24T01:25:54;12.90;99.90
15262;DHT22;7733;51.554;13.590;2023-04-24T01:28:21;12.90;99.90
15262;DHT22;7733;51.554;13.590;2023-04-24T01:30:47;13.00;99.90
15262;DHT22;7733;51.554;13.590;2023-04-24T01:33:13;13.00;99.90
15262;DHT22;7733;51.554;13.590;2023-04-24T01:35:40;12.80;99.90
15262;DHT22;7733;51.554;13.590;2023-04-24T01:38:06;12.80;99.90
15262;DHT22;7733;51.554;13.590;2023-04-24T01:40:32;12.90;99.90
15262;DHT22;7733;51.554;13.590;2023-04-24T01:42:58;12.70;99.90
15262;DHT22;7733;51.554;13.590;2023-04-24T01:45:25;12.70;99.90
15262;DHT22;7733;51.554;13.590;2023-04-24T01:47:50;12.70;99.90
15262;DHT22;7733;51.554;13.590;2023-04-24T01:50:17;12.70;99.90
15262;DHT22;7733;51.554;13.590;2023-04-24T01:52:43;12.50;99.90
15262;DHT22;7733;51.554;13.590;2023-04-24T01:55:10;12.50;99.90
15262;DHT22;7733;51.554;13.590;2023-04-24T01:57:36;12.60;99.90
15262;DHT22;7733;51.554;13.590;2023-04-24T02:00:03;12.60;99.90
15262;DHT22;7733;51.554;13.590;2023-04-24T02:02:33;12.50;99.90
15262;DHT22;7733;51.554;13.590;2023-04-24T02:04:59;12.50;99.90
15262;DHT22;7733;51.554;13.590;2023-04-24T02:07:24;12.60;99.90
15262;DHT22;7733;51.554;13.590;2023-04-24T02:09:50;12.60;99.90
15262;DHT22;7733;51.554;13.590;2023-04-24T02:12:16;12.70;99.90
15262;DHT22;7733;51.554;13.590;2023-04-24T02:14:43;12.80;99.90
15262;DHT22;7733;51.554;13.590;2023-04-24T02:17:09;12.80;99.90
15262;DHT22;7733;51.554;13.590;2023-04-24T02:19:37;12.80;99.90
15262;DHT22;7733;51.554;13.590;2023-04-24T02:22:03;12.80;99.90
15262;DHT22;7733;51.554;13.590;2023-04-24T02:24:28;12.70;99.90
15262;DHT22;7733;51.554;13.590;2023-04-24T02:26:54;12.80;99.90
15262;DHT22;7733;51.554;13.590;2023-04-24T02:29:21;12.80;99.90
15262;DHT22;7733;51.554;13.590;2023-04-24T02:31:46;12.70;99.90
15262;DHT22;7733;51.554;13.590;2023-04-24T02:34:12;12.70;99.90
15262;DHT22;7733;51.554;13.590;2023-04-24T02:36:38;12.80;99.90
15262;DHT22;7733;51.554;13.590;2023-04-24T02:39:03;12.60;99.90
15262;DHT22;7733;51.554;13.590;2023-04-24T02:41:29;12.50;99.90
15262;DHT22;7733;51.554;13.590;2023-04-24T02:43:58;12.50;99.90
15262;DHT22;7733;51.554;13.590;2023-04-24T02:46:24;12.50;99.90
15262;DHT22;7733;51.554;13.590;2023-04-24T02:48:50;12.60;99.90
15262;DHT22;7733;51.554;13.590;2023-04-24T02:51:16;12.50;99.90
15262;DHT22;7733;51.554;13.590;2023-04-24T02:53:41;12.50;99.90
15262;DHT22;7733;51.554;13.590;2023-04-24T02:56:07;12.60;99.90
15262;DHT22;7733;51.554;13.590;2023-04-24T02:58:33;12.50;99.90
15262;DHT22;7733;51.554;13.590;2023-04-24T03:00:59;12.60;99.90
15262;DHT22;7733;51.554;13.590;2023-04-24T03:03:25;12.50;99.90
15262;DHT22;7733;51.554;13.590;2023-04-24T03:05:51;12.40;99.90
15262;DHT22;7733;51.554;13.590;2023-04-24T03:08:18;12.40;99.90
15262;DHT22;7733;51.554;13.590;2023-04-24T03:10:44;12.50;99.90
15262;DHT22;7733;51.554;13.590;2023-04-24T03:13:09;12.50;99.90
15262;DHT22;7733;51.554;13.590;2023-04-24T03:15:35;12.40;99.90
15262;DHT22;7733;51.554;13.590;2023-04-24T03:18:01;12.40;99.90
15262;DHT22;7733;51.554;13.590;2023-04-24T03:20:28;12.40;99.90
15262;DHT22;7733;51.554;13.590;2023-04-24T03:22:53;12.30;99.90
15262;DHT22;7733;51.554;13.590;2023-04-24T03:25:19;12.20;99.90
15262;DHT22;7733;51.554;13.590;2023-04-24T03:27:45;12.30;99.90
15262;DHT22;7733;51.554;13.590;2023-04-24T03:30:11;12.30;99.90
15262;DHT22;7733;51.554;13.590;2023-04-24T03:32:37;12.30;99.90
15262;DHT22;7733;51.554;13.590;2023-04-24T03:35:06;12.40;99.90
15262;DHT22;7733;51.554;13.590;2023-04-24T03:37:33;12.40;99.90
15262;DHT22;7733;51.554;13.590;2023-04-24T03:39:58;12.40;99.90
15262;DHT22;7733;51.554;13.590;2023-04-24T03:42:25;12.40;99.90
15262;DHT22;7733;51.554;13.590;2023-04-24T03:44:50;12.40;99.90
15262;DHT22;7733;51.554;13.590;2023-04-24T03:47:16;12.40;99.90
15262;DHT22;7733;51.554;13.590;2023-04-24T03:49:41;12.40;99.90
15262;DHT22;7733;51.554;13.590;2023-04-24T03:52:07;12.40;99.90
15262;DHT22;7733;51.554;13.590;2023-04-24T03:54:33;12.30;99.90
15262;DHT22;7733;51.554;13.590;2023-04-24T03:56:59;12.30;99.90
15262;DHT22;7733;51.554;13.590;2023-04-24T03:59:25;12.30;99.90
15262;DHT22;7733;51.554;13.590;2023-04-24T04:01:51;12.30;99.90
15262;DHT22;7733;51.554;13.590;2023-04-24T04:04:16;12.20;99.90
15262;DHT22;7733;51.554;13.590;2023-04-24T04:06:43;12.20;99.90
15262;DHT22;7733;51.554;13.590;2023-04-24T04:09:09;12.30;99.90
15262;DHT22;7733;51.554;13.590;2023-04-24T04:11:36;12.30;99.90
15262;DHT22;7733;51.554;13.590;2023-04-24T04:14:02;12.30;99.90
15262;DHT22;7733;51.554;13.590;2023-04-24T04:16:27;12.30;99.90
15262;DHT22;7733;51.554;13.590;2023-04-24T04:18:53;12.30;99.90
15262;DHT22;7733;51.554;13.590;2023-04-24T04:21:19;12.30;99.90
15262;DHT22;7733;51.554;13.590;2023-04-24T04:23:45;12.30;99.90
15262;DHT22;7733;51.554;13.590;2023-04-24T04:26:11;12.30;99.90
15262;DHT22;7733;51.554;13.590;2023-04-24T04:28:38;12.30;99.90
15262;DHT22;7733;51.554;13.590;2023-04-24T04:31:05;12.20;99.90
15262;DHT22;7733;51.554;13.590;2023-04-24T04:33:33;12.10;99.90
15262;DHT22;7733;51.554;13.590;2023-04-24T04:36:01;12.20;99.90
15262;DHT22;7733;51.554;13.590;2023-04-24T04:38:27;12.10;99.90
15262;DHT22;7733;51.554;13.590;2023-04-24T04:40:55;12.00;99.90
15262;DHT22;7733;51.554;13.590;2023-04-24T04:43:23;12.10;99.90
15262;DHT22;7733;51.554;13.590;2023-04-24T04:45:49;12.00;99.90
15262;DHT22;7733;51.554;13.590;2023-04-24T04:48:17;12.00;99.90
15262;DHT22;7733;51.554;13.590;2023-04-24T04:50:44;12.00;99.90
15262;DHT22;7733;51.554;13.590;2023-04-24T04:53:10;12.00;99.90
15262;DHT22;7733;51.554;13.590;2023-04-24T04:55:36;12.10;99.90
15262;DHT22;7733;51.554;13.590;2023-04-24T04:58:02;12.20;99.90
15262;DHT22;7733;51.554;13.590;2023-04-24T05:00:28;12.20;99.90
15262;DHT22;7733;51.554;13.590;2023-04-24T05:02:59;12.20;99.90
15262;DHT22;7733;51.554;13.590;2023-04-24T05:05:25;12.20;99.90
15262;DHT22;7733;51.554;13.590;2023-04-24T05:07:51;12.30;99.90
15262;DHT22;7733;51.554;13.590;2023-04-24T05:10:17;12.50;99.90
15262;DHT22;7733;51.554;13.590;2023-04-24T05:12:43;12.40;99.90
15262;DHT22;7733;51.554;13.590;2023-04-24T05:15:08;12.40;99.90
15262;DHT22;7733;51.554;13.590;2023-04-24T05:17:35;12.50;99.90
15262;DHT22;7733;51.554;13.590;2023-04-24T05:20:02;12.60;99.90
15262;DHT22;7733;51.554;13.590;2023-04-24T05:22:31;12.60;99.90
15262;DHT22;7733;51.554;13.590;2023-04-24T05:24:57;12.70;99.90
15262;DHT22;7733;51.554;13.590;2023-04-24T05:27:23;12.70;99.90
15262;DHT22;7733;51.554;13.590;2023-04-24T05:29:49;12.70;99.90
15262;DHT22;7733;51.554;13.590;2023-04-24T05:32:15;12.80;99.90
15262;DHT22;7733;51.554;13.590;2023-04-24T05:34:41;12.80;99.90
15262;DHT22;7733;51.554;13.590;2023-04-24T05:37:06;12.80;99.90
15262;DHT22;7733;51.554;13.590;2023-04-24T05:39:35;12.80;99.90
15262;DHT22;7733;51.554;13.590;2023-04-24T05:42:02;12.80;99.90
15262;DHT22;7733;51.554;13.590;2023-04-24T05:44:28;12.90;99.90
15262;DHT22;7733;51.554;13.590;2023-04-24T05:46:54;13.00;99.90
15262;DHT22;7733;51.554;13.590;2023-04-24T05:49:21;13.00;99.90
15262;DHT22;7733;51.554;13.590;2023-04-24T05:51:47;13.10;99.90
15262;DHT22;7733;51.554;13.590;2023-04-24T05:54:12;13.10;99.90
15262;DHT22;7733;51.554;13.590;2023-04-24T05:56:39;13.10;99.90
15262;DHT22;7733;51.554;13.590;2023-04-24T05:59:05;13.10;99.90
15262;DHT22;7733;51.554;13.590;2023-04-24T06:01:31;13.20;99.90
15262;DHT22;7733;51.554;13.590;2023-04-24T06:03:57;13.20;99.90
15262;DHT22;7733;51.554;13.590;2023-04-24T06:06:23;13.30;99.90
15262;DHT22;7733;51.554;13.590;2023-04-24T06:08:49;13.40;99.90
15262;DHT22;7733;51.554;13.590;2023-04-24T06:11:15;13.40;99.90
15262;DHT22;7733;51.554;13.590;2023-04-24T06:13:41;13.40;99.90
15262;DHT22;7733;51.554;13.590;2023-04-24T06:16:07;13.40;99.90
15262;DHT22;7733;51.554;13.590;2023-04-24T06:18:33;13.50;99.90
15262;DHT22;7733;51.554;13.590;2023-04-24T06:20:59;13.50;99.90
15262;DHT22;7733;51.554;13.590;2023-04-24T06:23:25;13.40;99.90
15262;DHT22;7733;51.554;13.590;2023-04-24T06:25:51;13.50;99.90
15262;DHT22;7733;51.554;13.590;2023-04-24T06:28:17;13.50;99.90
15262;DHT22;7733;51.554;13.590;2023-04-24T06:30:42;13.50;99.90
15262;DHT22;7733;51.554;13.590;2023-04-24T06:33:08;13.50;99.90
15262;DHT22;7733;51.554;13.590;2023-04-24T06:35:35;13.50;99.90
15262;DHT22;7733;51.554;13.590;2023-04-24T06:38:03;13.50;99.90
15262;DHT22;7733;51.554;13.590;2023-04-24T06:40:29;13.50;99.90
15262;DHT22;7733;51.554;13.590;2023-04-24T06:42:55;13.50;99.90
15262;DHT22;7733;51.554;13.590;2023-04-24T06:45:20;13.50;99.90
15262;DHT22;7733;51.554;13.590;2023-04-24T06:47:46;13.60;99.90
15262;DHT22;7733;51.554;13.590;2023-04-24T06:50:12;13.70;99.90
15262;DHT22;7733;51.554;13.590;2023-04-24T06:52:38;13.70;99.90
15262;DHT22;7733;51.554;13.590;2023-04-24T06:55:04;13.80;99.90
15262;DHT22;7733;51.554;13.590;2023-04-24T06:57:31;13.90;99.90
15262;DHT22;7733;51.554;13.590;2023-04-24T06:59:57;13.90;99.90
15262;DHT22;7733;51.554;13.590;2023-04-24T07:02:23;14.20;99.90
15262;DHT22;7733;51.554;13.590;2023-04-24T07:04:48;14.20;99.90
15262;DHT22;7733;51.554;13.590;2023-04-24T07:07:14;14.20;99.90
15262;DHT22;7733;51.554;13.590;2023-04-24T07:09:41;14.30;99.90
15262;DHT22;7733;51.554;13.590;2023-04-24T07:12:08;14.10;99.90
15262;DHT22;7733;51.554;13.590;2023-04-24T07:14:36;14.20;99.90
15262;DHT22;7733;51.554;13.590;2023-04-24T07:17:03;14.40;99.90
15262;DHT22;7733;51.554;13.590;2023-04-24T07:19:30;14.50;99.90
15262;DHT22;7733;51.554;13.590;2023-04-24T07:21:56;14.60;99.90
15262;DHT22;7733;51.554;13.590;2023-04-24T07:24:24;14.80;99.90
15262;DHT22;7733;51.554;13.590;2023-04-24T07:26:51;14.70;99.90
15262;DHT22;7733;51.554;13.590;2023-04-24T07:29:18;14.80;99.90
15262;DHT22;7733;51.554;13.590;2023-04-24T07:31:44;14.90;99.90
15262;DHT22;7733;51.554;13.590;2023-04-24T07:34:09;15.00;99.90
15262;DHT22;7733;51.554;13.590;2023-04-24T07:36:36;15.00;99.90
15262;DHT22;7733;51.554;13.590;2023-04-24T07:39:04;15.10;99.90
15262;DHT22;7733;51.554;13.590;2023-04-24T07:41:31;15.00;99.90
15262;DHT22;7733;51.554;13.590;2023-04-24T07:43:57;15.00;99.90
15262;DHT22;7733;51.554;13.590;2023-04-24T07:46:23;14.90;99.90
15262;DHT22;7733;51.554;13.590;2023-04-24T07:48:50;14.90;99.90
15262;DHT22;7733;51.554;13.590;2023-04-24T07:51:16;14.90;99.90
15262;DHT22;7733;51.554;13.590;2023-04-24T07:53:43;14.90;99.90
15262;DHT22;7733;51.554;13.590;2023-04-24T07:56:09;14.90;99.90
15262;DHT22;7733;51.554;13.590;2023-04-24T07:58:35;14.90;99.90
15262;DHT22;7733;51.554;13.590;2023-04-24T08:01:01;15.00;99.90
15262;DHT22;7733;51.554;13.590;2023-04-24T08:03:26;15.30;99.90
15262;DHT22;7733;51.554;13.590;2023-04-24T08:05:52;15.20;99.90
15262;DHT22;7733;51.554;13.590;2023-04-24T08:08:21;15.10;99.90
15262;DHT22;7733;51.554;13.590;2023-04-24T08:10:48;15.20;99.90
15262;DHT22;7733;51.554;13.590;2023-04-24T08:13:14;15.10;99.90
15262;DHT22;7733;51.554;13.590;2023-04-24T08:15:40;15.40;99.90
15262;DHT22;7733;51.554;13.590;2023-04-24T08:18:06;15.60;99.90
15262;DHT22;7733;51.554;13.590;2023-04-24T08:20:32;15.60;99.90
15262;DHT22;7733;51.554;13.590;2023-04-24T08:22:58;15.50;99.90
15262;DHT22;7733;51.554;13.590;2023-04-24T08:25:24;15.30;99.90
15262;DHT22;7733;51.554;13.590;2023-04-24T08:27:50;15.30;99.90
15262;DHT22;7733;51.554;13.590;2023-04-24T08:30:17;15.20;99.90
15262;DHT22;7733;51.554;13.590;2023-04-24T08:32:43;15.10;99.90
15262;DHT22;7733;51.554;13.590;2023-04-24T08:35:09;15.20;99.90
15262;DHT22;7733;51.554;13.590;2023-04-24T08:37:35;15.20;99.90
15262;DHT22;7733;51.554;13.590;2023-04-24T08:40:06;15.40;99.90
15262;DHT22;7733;51.554;13.590;2023-04-24T08:42:42;15.10;99.90
15262;DHT22;7733;51.554;13.590;2023-04-24T08:45:10;15.10;99.90
15262;DHT22;7733;51.554;13.590;2023-04-24T08:47:38;15.20;99.90
15262;DHT22;7733;51.554;13.590;2023-04-24T08:50:06;15.20;99.90
15262;DHT22;7733;51.554;13.590;2023-04-24T08:52:33;15.30;99.90
15262;DHT22;7733;51.554;13.590;2023-04-24T08:55:01;15.20;99.90
15262;DHT22;7733;51.554;13.590;2023-04-24T08:57:28;15.10;99.90
15262;DHT22;7733;51.554;13.590;2023-04-24T08:59:56;15.00;99.90
15262;DHT22;7733;51.554;13.590;2023-04-24T09:02:23;14.80;99.90
15262;DHT22;7733;51.554;13.590;2023-04-24T09:04:50;14.80;99.90
15262;DHT22;7733;51.554;13.590;2023-04-24T09:07:18;14.90;99.90
15262;DHT22;7733;51.554;13.590;2023-04-24T09:09:45;15.00;99.90
15262;DHT22;7733;51.554;13.590;2023-04-24T09:12:11;15.00;99.90
15262;DHT22;7733;51.554;13.590;2023-04-24T09:14:38;15.00;99.90
15262;DHT22;7733;51.554;13.590;2023-04-24T09:17:07;15.00;99.90
15262;DHT22;7733;51.554;13.590;2023-04-24T09:19:33;15.10;99.90
15262;DHT22;7733;51.554;13.590;2023-04-24T09:21:59;15.10;99.90
15262;DHT22;7733;51.554;13.590;2023-04-24T09:24:25;15.10;99.90
15262;DHT22;7733;51.554;13.590;2023-04-24T09:26:58;15.00;99.90
15262;DHT22;7733;51.554;13.590;2023-04-24T09:29:24;15.10;99.90
15262;DHT22;7733;51.554;13.590;2023-04-24T09:31:50;15.00;99.90
15262;DHT22;7733;51.554;13.590;2023-04-24T09:34:22;15.10;99.90
15262;DHT22;7733;51.554;13.590;2023-04-24T09:36:49;15.40;99.90
15262;DHT22;7733;51.554;13.590;2023-04-24T09:39:17;15.70;99.90
15262;DHT22;7733;51.554;13.590;2023-04-24T09:41:55;15.60;99.90
15262;DHT22;7733;51.554;13.590;2023-04-24T09:44:27;15.50;99.90
15262;DHT22;7733;51.554;13.590;2023-04-24T09:47:00;15.30;99.90
15262;DHT22;7733;51.554;13.590;2023-04-24T09:49:32;15.30;99.90
15262;DHT22;7733;51.554;13.590;2023-04-24T09:52:10;15.30;99.90
15262;DHT22;7733;51.554;13.590;2023-04-24T09:54:37;15.30;99.90
15262;DHT22;7733;51.554;13.590;2023-04-24T09:57:04;15.40;99.90
15262;DHT22;7733;51.554;13.590;2023-04-24T09:59:32;15.40;99.90
15262;DHT22;7733;51.554;13.590;2023-04-24T10:01:59;15.50;99.90
15262;DHT22;7733;51.554;13.590;2023-04-24T10:04:27;15.60;99.90
15262;DHT22;7733;51.554;13.590;2023-04-24T10:06:56;15.50;99.90
15262;DHT22;7733;51.554;13.590;2023-04-24T10:09:25;15.70;99.90
15262;DHT22;7733;51.554;13.590;2023-04-24T10:11:53;15.80;99.90
15262;DHT22;7733;51.554;13.590;2023-04-24T10:14:22;15.70;99.90
15262;DHT22;7733;51.554;13.590;2023-04-24T10:16:50;15.60;99.90
15262;DHT22;7733;51.554;13.590;2023-04-24T10:19:17;15.50;99.90
15262;DHT22;7733;51.554;13.590;2023-04-24T10:21:45;15.60;99.90
15262;DHT22;7733;51.554;13.590;2023-04-24T10:24:15;15.60;99.90
15262;DHT22;7733;51.554;13.590;2023-04-24T10:26:43;15.70;99.90
15262;DHT22;7733;51.554;13.590;2023-04-24T10:29:14;16.10;99.90
15262;DHT22;7733;51.554;13.590;2023-04-24T10:31:43;16.00;99.90
15262;DHT22;7733;51.554;13.590;2023-04-24T10:34:11;16.10;99.90
15262;DHT22;7733;51.554;13.590;2023-04-24T10:36:41;16.20;99.90
15262;DHT22;7733;51.554;13.590;2023-04-24T10:39:13;16.20;99.90
15262;DHT22;7733;51.554;13.590;2023-04-24T10:41:41;16.30;99.90
15262;DHT22;7733;51.554;13.590;2023-04-24T10:44:11;16.30;99.90
15262;DHT22;7733;51.554;13.590;2023-04-24T10:46:44;16.10;99.90
15262;DHT22;7733;51.554;13.590;2023-04-24T10:49:11;16.00;99.90
15262;DHT22;7733;51.554;13.590;2023-04-24T10:51:51;16.00;99.90
15262;DHT22;7733;51.554;13.590;2023-04-24T10:54:44;16.20;99.90
15262;DHT22;7733;51.554;13.590;2023-04-24T10:59:50;16.30;99.90
15262;DHT22;7733;51.554;13.590;2023-04-24T11:02:38;16.20;99.90
15262;DHT22;7733;51.554;13.590;2023-04-24T11:05:06;16.40;99.90
15262;DHT22;7733;51.554;13.590;2023-04-24T11:10:44;16.40;99.90
15262;DHT22;7733;51.554;13.590;2023-04-24T11:13:14;16.50;99.90
15262;DHT22;7733;51.554;13.590;2023-04-24T11:16:12;16.60;99.90
15262;DHT22;7733;51.554;13.590;2023-04-24T11:18:42;16.50;99.90
15262;DHT22;7733;51.554;13.590;2023-04-24T11:21:18;16.60;99.90
15262;DHT22;7733;51.554;13.590;2023-04-24T11:23:45;16.70;99.90
15262;DHT22;7733;51.554;13.590;2023-04-24T11:26:13;16.90;99.90
15262;DHT22;7733;51.554;13.590;2023-04-24T11:28:47;16.70;99.90
15262;DHT22;7733;51.554;13.590;2023-04-24T11:34:12;16.40;99.90
15262;DHT22;7733;51.554;13.590;2023-04-24T11:36:43;16.30;99.90
15262;DHT22;7733;51.554;13.590;2023-04-24T11:39:13;16.20;99.90
15262;DHT22;7733;51.554;13.590;2023-04-24T11:41:39;16.10;99.90
15262;DHT22;7733;51.554;13.590;2023-04-24T11:44:09;16.10;99.90
15262;DHT22;7733;51.554;13.590;2023-04-24T11:46:36;16.10;99.90
15262;DHT22;7733;51.554;13.590;2023-04-24T11:49:05;16.20;99.90
15262;DHT22;7733;51.554;13.590;2023-04-24T11:51:31;16.20;99.90
15262;DHT22;7733;51.554;13.590;2023-04-24T11:53:58;16.00;99.90
15262;DHT22;7733;51.554;13.590;2023-04-24T11:56:25;16.20;99.90
15262;DHT22;7733;51.554;13.590;2023-04-24T11:58:53;16.50;99.90
15262;DHT22;7733;51.554;13.590;2023-04-24T12:01:20;16.60;99.90
15262;DHT22;7733;51.554;13.590;2023-04-24T12:03:50;16.90;99.90
15262;DHT22;7733;51.554;13.590;2023-04-24T12:06:20;17.20;99.90
15262;DHT22;7733;51.554;13.590;2023-04-24T12:08:46;17.40;99.90
15262;DHT22;7733;51.554;13.590;2023-04-24T12:11:15;17.40;99.90
15262;DHT22;7733;51.554;13.590;2023-04-24T12:13:44;17.60;99.90
15262;DHT22;7733;51.554;13.590;2023-04-24T12:16:10;17.60;99.90
15262;DHT22;7733;51.554;13.590;2023-04-24T12:18:44;17.20;99.90
15262;DHT22;7733;51.554;13.590;2023-04-24T12:21:22;17.20;99.90
15262;DHT22;7733;51.554;13.590;2023-04-24T12:23:48;16.90;99.90
15262;DHT22;7733;51.554;13.590;2023-04-24T12:26:18;16.70;99.90
15262;DHT22;7733;51.554;13.590;2023-04-24T12:28:47;16.30;99.90
15262;DHT22;7733;51.554;13.590;2023-04-24T12:31:15;15.70;99.90
15262;DHT22;7733;51.554;13.590;2023-04-24T12:33:42;15.10;99.90
15262;DHT22;7733;51.554;13.590;2023-04-24T12:36:10;14.70;99.90
15262;DHT22;7733;51.554;13.590;2023-04-24T12:38:37;14.70;99.90
15262;DHT22;7733;51.554;13.590;2023-04-24T12:41:11;14.70;99.90
15262;DHT22;7733;51.554;13.590;2023-04-24T12:43:38;14.90;99.90
15262;DHT22;7733;51.554;13.590;2023-04-24T12:46:16;15.00;99.90
15262;DHT22;7733;51.554;13.590;2023-04-24T12:48:42;15.10;99.90
15262;DHT22;7733;51.554;13.590;2023-04-24T12:51:07;15.20;99.90
15262;DHT22;7733;51.554;13.590;2023-04-24T12:53:33;15.50;99.90
15262;DHT22;7733;51.554;13.590;2023-04-24T12:55:59;16.10;99.90
15262;DHT22;7733;51.554;13.590;2023-04-24T12:58:24;16.50;99.90
15262;DHT22;7733;51.554;13.590;2023-04-24T13:00:50;16.30;99.90
15262;DHT22;7733;51.554;13.590;2023-04-24T13:03:17;16.10;99.90
15262;DHT22;7733;51.554;13.590;2023-04-24T13:05:43;15.90;99.90
15262;DHT22;7733;51.554;13.590;2023-04-24T13:08:09;16.20;99.90
15262;DHT22;7733;51.554;13.590;2023-04-24T13:10:35;16.10;99.50
15262;DHT22;7733;51.554;13.590;2023-04-24T13:13:01;16.50;97.40
15262;DHT22;7733;51.554;13.590;2023-04-24T13:15:28;16.50;97.10
15262;DHT22;7733;51.554;13.590;2023-04-24T13:17:54;16.70;96.80
15262;DHT22;7733;51.554;13.590;2023-04-24T13:20:20;16.60;96.10
15262;DHT22;7733;51.554;13.590;2023-04-24T13:22:46;16.60;96.50
15262;DHT22;7733;51.554;13.590;2023-04-24T13:25:12;16.80;95.30
15262;DHT22;7733;51.554;13.590;2023-04-24T13:27:40;16.90;95.20
15262;DHT22;7733;51.554;13.590;2023-04-24T13:30:07;17.00;96.20
15262;DHT22;7733;51.554;13.590;2023-04-24T13:32:33;17.30;93.90
15262;DHT22;7733;51.554;13.590;2023-04-24T13:35:00;17.10;92.20
15262;DHT22;7733;51.554;13.590;2023-04-24T13:37:26;17.50;92.30
15262;DHT22;7733;51.554;13.590;2023-04-24T13:39:52;17.60;90.60
15262;DHT22;7733;51.554;13.590;2023-04-24T13:42:17;17.20;91.20
15262;DHT22;7733;51.554;13.590;2023-04-24T13:44:44;17.30;91.80
15262;DHT22;7733;51.554;13.590;2023-04-24T13:47:09;16.70;91.10
15262;DHT22;7733;51.554;13.590;2023-04-24T13:49:35;16.40;92.10
15262;DHT22;7733;51.554;13.590;2023-04-24T13:52:02;16.40;93.20
15262;DHT22;7733;51.554;13.590;2023-04-24T13:54:28;16.40;93.30
15262;DHT22;7733;51.554;13.590;2023-04-24T13:56:55;16.60;93.30
15262;DHT22;7733;51.554;13.590;2023-04-24T13:59:23;17.00;92.70
15262;DHT22;7733;51.554;13.590;2023-04-24T14:01:50;17.10;90.70
15262;DHT22;7733;51.554;13.590;2023-04-24T14:04:16;17.20;91.40
15262;DHT22;7733;51.554;13.590;2023-04-24T14:06:42;17.00;90.80
15262;DHT22;7733;51.554;13.590;2023-04-24T14:09:08;17.10;90.90
15262;DHT22;7733;51.554;13.590;2023-04-24T14:11:34;17.20;90.40
15262;DHT22;7733;51.554;13.590;2023-04-24T14:14:00;17.10;91.00
15262;DHT22;7733;51.554;13.590;2023-04-24T14:16:26;16.90;89.60
15262;DHT22;7733;51.554;13.590;2023-04-24T14:18:53;17.00;91.10
15262;DHT22;7733;51.554;13.590;2023-04-24T14:21:18;17.00;88.40
15262;DHT22;7733;51.554;13.590;2023-04-24T14:23:44;16.60;90.10
15262;DHT22;7733;51.554;13.590;2023-04-24T14:26:10;16.60;90.70
15262;DHT22;7733;51.554;13.590;2023-04-24T14:28:36;16.90;90.30
15262;DHT22;7733;51.554;13.590;2023-04-24T14:31:02;17.30;88.40
15262;DHT22;7733;51.554;13.590;2023-04-24T14:33:28;17.30;87.20
15262;DHT22;7733;51.554;13.590;2023-04-24T14:35:54;17.60;88.30
15262;DHT22;7733;51.554;13.590;2023-04-24T14:38:19;17.40;85.90
15262;DHT22;7733;51.554;13.590;2023-04-24T14:40:45;17.10;84.30
15262;DHT22;7733;51.554;13.590;2023-04-24T14:43:11;16.80;87.30
15262;DHT22;7733;51.554;13.590;2023-04-24T14:45:37;16.60;88.20
15262;DHT22;7733;51.554;13.590;2023-04-24T14:48:03;16.50;86.40
15262;DHT22;7733;51.554;13.590;2023-04-24T14:50:30;16.70;86.20
15262;DHT22;7733;51.554;13.590;2023-04-24T14:52:56;17.00;89.10
15262;DHT22;7733;51.554;13.590;2023-04-24T14:55:23;16.90;90.40
15262;DHT22;7733;51.554;13.590;2023-04-24T14:57:49;16.60;88.50
15262;DHT22;7733;51.554;13.590;2023-04-24T15:00:16;16.40;89.00
15262;DHT22;7733;51.554;13.590;2023-04-24T15:02:42;16.30;88.80
15262;DHT22;7733;51.554;13.590;2023-04-24T15:05:10;16.30;89.50
15262;DHT22;7733;51.554;13.590;2023-04-24T15:07:36;16.10;89.80
15262;DHT22;7733;51.554;13.590;2023-04-24T15:10:03;16.20;90.00
15262;DHT22;7733;51.554;13.590;2023-04-24T15:12:29;16.20;89.60
15262;DHT22;7733;51.554;13.590;2023-04-24T15:14:57;16.10;89.80
15262;DHT22;7733;51.554;13.590;2023-04-24T15:17:23;16.20;90.00
15262;DHT22;7733;51.554;13.590;2023-04-24T15:19:48;16.20;89.10
15262;DHT22;7733;51.554;13.590;2023-04-24T15:22:14;16.20;88.70
15262;DHT22;7733;51.554;13.590;2023-04-24T15:24:40;16.20;88.50
15262;DHT22;7733;51.554;13.590;2023-04-24T15:27:09;16.20;90.10
15262;DHT22;7733;51.554;13.590;2023-04-24T15:29:36;16.10;88.40
15262;DHT22;7733;51.554;13.590;2023-04-24T15:32:02;16.10;89.30
15262;DHT22;7733;51.554;13.590;2023-04-24T15:34:27;16.10;88.50
15262;DHT22;7733;51.554;13.590;2023-04-24T15:36:53;15.80;88.00